createdAt,value
2018-11-12T00:38:25.538Z,12.3
2018-11-12T00:39:24.473Z,12.3
2018-11-12T00:40:23.801Z,12.3
2018-11-12T00:41:23.036Z,12.3
2018-11-12T00:43:21.142Z,12.3
2018-11-12T00:45:19.250Z,12.3
2018-11-12T00:46:18.875Z,12.3
2018-11-12T00:47:17.710Z,12.3
2018-11-12T00:49:16.322Z,12.3
2018-11-12T00:50:15.661Z,12.3
2018-11-12T00:51:14.605Z,12.3
2018-11-12T00:52:13.733Z,12.3
2018-11-12T00:53:12.961Z,12.3
2018-11-12T00:54:12.291Z,12.3
2018-11-12T00:55:11.128Z,12.3
2018-11-12T00:57:09.732Z,12.3
2018-11-12T00:58:08.570Z,12.3
2018-11-12T00:59:07.953Z,12.2
2018-11-12T01:00:07.288Z,12.2
2018-11-12T01:01:08.415Z,12.2
2018-11-12T01:02:05.218Z,12.2
2018-11-12T01:05:02.707Z,12.2
2018-11-12T01:06:01.952Z,12.2
2018-11-12T01:07:00.964Z,12.3
2018-11-12T01:08:00.631Z,12.3
2018-11-12T01:08:59.456Z,12.3
2018-11-12T01:09:58.692Z,12.4
2018-11-12T01:10:58.136Z,12.4
2018-11-12T01:11:56.966Z,12.4
2018-11-12T01:12:56.088Z,12.4
2018-11-12T01:13:55.415Z,12.5
2018-11-12T01:14:54.689Z,12.6
2018-11-12T01:15:53.529Z,12.6
2018-11-12T01:16:52.834Z,12.6
2018-11-12T01:17:52.064Z,12.7
2018-11-12T01:18:50.972Z,12.7
2018-11-12T01:20:49.689Z,12.6
2018-11-12T01:21:48.533Z,12.5
2018-11-12T01:22:47.871Z,12.5
2018-11-12T01:23:47.207Z,12.5
2018-11-12T01:24:46.040Z,12.5
2018-11-12T01:25:45.488Z,12.4
2018-11-12T01:27:43.585Z,12.4
2018-11-12T01:28:42.599Z,12.4
2018-11-12T01:29:41.834Z,12.3
2018-11-12T01:30:41.170Z,12.3
2018-11-12T01:31:40.284Z,12.3
2018-11-12T01:32:39.628Z,12.3
2018-11-12T01:33:38.467Z,12.3
2018-11-12T01:35:37.193Z,12.2
2018-11-12T01:36:35.917Z,12.2
2018-11-12T01:37:35.145Z,12.2
2018-11-12T01:38:05.902Z,12.2
2018-11-12T01:39:33.811Z,12.2
2018-11-12T01:40:33.030Z,12.2
2018-11-12T01:41:31.971Z,12.2
2018-11-12T01:42:31.303Z,12.1
2018-11-12T01:44:29.405Z,12.1
2018-11-12T01:45:28.888Z,12.1
2018-11-12T01:46:27.917Z,12.1
2018-11-12T01:47:27.166Z,12.1
2018-11-12T01:48:26.007Z,12.1
2018-11-12T01:52:22.988Z,12
2018-11-12T01:55:20.589Z,11.9
2018-11-12T01:56:19.919Z,11.9
2018-11-12T01:57:18.850Z,11.9
2018-11-12T01:59:16.954Z,11.8
2018-11-12T02:00:16.470Z,11.8
2018-11-12T02:02:14.698Z,11.8
2018-11-12T02:03:13.924Z,11.7
2018-11-12T02:04:13.048Z,11.7
2018-11-12T02:05:12.163Z,11.7
2018-11-12T02:07:10.493Z,11.6
2018-11-12T02:08:09.437Z,11.6
2018-11-12T02:09:09.105Z,11.6
2018-11-12T02:10:07.845Z,11.6
2018-11-12T02:11:07.185Z,11.5
2018-11-12T02:12:06.167Z,11.5
2018-11-12T02:13:05.393Z,11.5
2018-11-12T02:15:03.503Z,11.4
2018-11-12T02:16:02.623Z,11.4
2018-11-12T02:17:02.242Z,11.4
2018-11-12T02:19:00.356Z,11.4
2018-11-12T02:21:57.756Z,11.4
2018-11-12T02:23:56.129Z,11.4
2018-11-12T02:24:55.377Z,11.4
2018-11-12T02:25:54.606Z,11.4
2018-11-12T02:26:53.834Z,11.5
2018-11-12T02:27:52.658Z,11.5
2018-11-12T02:28:51.879Z,11.5
2018-11-12T02:29:51.314Z,11.5
2018-11-12T02:33:47.815Z,11.5
2018-11-12T02:34:46.802Z,11.5
2018-11-12T02:35:46.169Z,11.6
2018-11-12T02:36:45.402Z,11.6
2018-11-12T02:37:44.142Z,11.5
2018-11-12T02:38:43.264Z,11.5
2018-11-12T02:39:43.001Z,11.6
2018-11-12T02:40:41.836Z,11.6
2018-11-12T02:42:40.058Z,11.6
2018-11-12T02:43:39.524Z,11.6
2018-11-12T02:44:38.362Z,11.6
2018-11-12T02:45:37.810Z,11.6
2018-11-12T02:46:37.038Z,11.6
2018-11-12T02:47:35.868Z,11.6
2018-11-12T02:48:35.319Z,11.6
2018-11-12T02:49:34.442Z,11.6
2018-11-12T02:50:33.373Z,11.6
2018-11-12T02:51:32.614Z,11.6
2018-11-12T02:52:31.884Z,11.6
2018-11-12T02:53:30.716Z,11.5
2018-11-12T02:54:30.053Z,11.5
2018-11-12T02:55:29.510Z,11.5
2018-11-12T02:56:28.336Z,11.5
2018-11-12T02:57:27.805Z,11.5
2018-11-12T02:57:58.097Z,11.5
2018-11-12T02:59:25.632Z,11.5
2018-11-12T03:00:24.865Z,11.5
2018-11-12T03:01:24.278Z,11.4
2018-11-12T03:02:23.620Z,11.4
2018-11-12T03:03:22.367Z,11.4
2018-11-12T03:05:21.093Z,11.4
2018-11-12T03:06:19.922Z,11.3
2018-11-12T03:07:19.249Z,11.4
2018-11-12T03:08:18.435Z,11.4
2018-11-12T03:08:48.714Z,11.4
2018-11-12T03:09:19.251Z,11.4
2018-11-12T03:09:50.030Z,11.4
2018-11-12T03:11:15.545Z,11.3
2018-11-12T03:12:14.997Z,11.3
2018-11-12T03:13:14.340Z,11.3
2018-11-12T03:14:13.176Z,11.3
2018-11-12T03:16:11.492Z,11.3
2018-11-12T03:17:10.832Z,11.3
2018-11-12T03:18:09.553Z,11.3
2018-11-12T03:19:08.795Z,11.3
2018-11-12T03:20:08.146Z,11.3
2018-11-12T03:21:07.488Z,11.3
2018-11-12T03:22:06.317Z,11.3
2018-11-12T03:23:05.436Z,11.2
2018-11-12T03:24:04.788Z,11.2
2018-11-12T03:25:03.907Z,11.2
2018-11-12T03:27:01.920Z,11.2
2018-11-12T03:28:01.265Z,11.2
2018-11-12T03:29:00.501Z,11.2
2018-11-12T03:29:59.945Z,11.1
2018-11-12T03:30:58.691Z,11.1
2018-11-12T03:31:57.935Z,11.1
2018-11-12T03:32:57.168Z,11.1
2018-11-12T03:33:56.413Z,11.1
2018-11-12T03:34:55.261Z,11.1
2018-11-12T03:35:54.500Z,11.1
2018-11-12T03:36:53.938Z,11.1
2018-11-12T03:39:51.301Z,11.1
2018-11-12T03:40:21.530Z,11.1
2018-11-12T03:40:52.199Z,11.1
2018-11-12T03:41:22.872Z,11.1
2018-11-12T03:43:47.760Z,11.2
2018-11-12T03:45:45.875Z,11.3
2018-11-12T03:46:44.993Z,11.3
2018-11-12T03:47:44.441Z,11.3
2018-11-12T03:48:43.384Z,11.4
2018-11-12T03:49:42.833Z,11.4
2018-11-12T03:50:12.875Z,11.4
2018-11-12T03:50:43.536Z,11.4
2018-11-12T03:51:13.788Z,11.4
2018-11-12T03:51:44.329Z,11.4
2018-11-12T03:52:14.890Z,11.4
2018-11-12T03:53:39.490Z,11.5
2018-11-12T03:54:38.624Z,11.6
2018-11-12T03:55:37.348Z,11.6
2018-11-12T03:56:36.684Z,11.6
2018-11-12T03:57:35.809Z,11.6
2018-11-12T03:59:34.022Z,11.6
2018-11-12T04:00:33.267Z,11.6
2018-11-12T04:01:32.608Z,11.6
2018-11-12T04:03:31.249Z,11.6
2018-11-12T04:04:30.077Z,11.6
2018-11-12T04:05:29.025Z,11.6
2018-11-12T04:07:27.340Z,11.6
2018-11-12T04:08:26.678Z,11.6
2018-11-12T04:09:25.421Z,11.6
2018-11-12T04:10:25.153Z,11.6
2018-11-12T04:11:23.774Z,11.6
2018-11-12T04:14:21.482Z,11.6
2018-11-12T04:15:20.312Z,11.6
2018-11-12T04:16:19.941Z,11.6
2018-11-12T04:17:18.958Z,11.6
2018-11-12T04:18:18.293Z,11.6
2018-11-12T04:19:17.529Z,11.6
2018-11-12T04:20:16.359Z,11.6
2018-11-12T04:21:15.712Z,11.6
2018-11-12T04:21:46.370Z,11.6
2018-11-12T04:23:13.783Z,11.5
2018-11-12T04:24:13.012Z,11.5
2018-11-12T04:25:12.348Z,11.5
2018-11-12T04:26:11.391Z,11.4
2018-11-12T04:27:10.628Z,11.4
2018-11-12T04:28:09.574Z,11.4
2018-11-12T04:29:08.904Z,11.3
2018-11-12T04:30:07.735Z,11.2
2018-11-12T04:31:07.190Z,11.2
2018-11-12T04:32:05.920Z,11.2
2018-11-12T04:32:36.465Z,11.2
2018-11-12T04:33:07.022Z,11.1
2018-11-12T04:34:04.465Z,11.1
2018-11-12T04:35:03.810Z,11
2018-11-12T04:36:02.930Z,11
2018-11-12T04:38:01.176Z,10.9
2018-11-12T04:39:00.414Z,10.9
2018-11-12T04:39:59.246Z,10.8
2018-11-12T04:40:58.590Z,10.8
2018-11-12T04:41:57.918Z,10.7
2018-11-12T04:45:54.291Z,10.6
2018-11-12T04:46:53.525Z,10.5
2018-11-12T04:47:52.882Z,10.5
2018-11-12T04:52:48.131Z,10.4
2018-11-12T04:53:47.955Z,10.3
2018-11-12T04:54:46.488Z,10.3
2018-11-12T04:56:45.121Z,10.3
2018-11-12T04:57:43.953Z,10.3
2018-11-12T04:58:43.198Z,10.3
2018-11-12T04:59:42.437Z,10.2
2018-11-12T05:00:41.202Z,10.2
2018-11-12T05:01:40.508Z,10.2
2018-11-12T05:02:39.893Z,10.2
2018-11-12T05:03:38.622Z,10.2
2018-11-12T05:04:37.969Z,10.2
2018-11-12T05:05:37.317Z,10.1
2018-11-12T05:06:36.037Z,10.1
2018-11-12T05:08:34.364Z,10.1
2018-11-12T05:10:32.591Z,10.1
2018-11-12T05:11:32.036Z,10.1
2018-11-12T05:12:30.984Z,10.1
2018-11-12T05:13:30.210Z,10.1
2018-11-12T05:15:28.538Z,10
2018-11-12T05:16:27.588Z,10
2018-11-12T05:18:25.873Z,9.9
2018-11-12T05:18:56.301Z,9.9
2018-11-12T05:19:26.626Z,9.9
2018-11-12T05:20:24.238Z,9.9
2018-11-12T05:21:23.475Z,9.9
2018-11-12T05:23:21.695Z,9.8
2018-11-12T05:26:18.684Z,9.8
2018-11-12T05:30:15.562Z,9.7
2018-11-12T05:33:12.804Z,9.7
2018-11-12T05:34:12.255Z,9.7
2018-11-12T05:35:11.085Z,9.6
2018-11-12T05:42:05.341Z,9.5
2018-11-12T05:47:00.493Z,9.5
2018-11-12T05:52:55.251Z,9.5
2018-11-12T05:56:52.191Z,9.6
2018-11-12T05:57:22.341Z,9.6
2018-11-12T08:34:32.958Z,10.9
2018-11-12T09:03:08.129Z,11.7
2018-11-12T09:08:03.887Z,12
2018-11-12T09:10:02.074Z,12.2
2018-11-12T09:11:01.257Z,12.2
2018-11-12T09:20:52.582Z,12.8
2018-11-12T09:50:28.081Z,14.6
2018-11-12T10:01:20.417Z,14.4
2018-11-12T10:02:20.977Z,14.4
2018-11-12T10:03:20.652Z,14.4
2018-11-12T10:04:17.568Z,14.4
2018-11-12T10:05:20.366Z,14.4
2018-11-12T10:06:20.541Z,14.3
2018-11-12T10:07:20.659Z,14.3
2018-11-12T10:08:21.335Z,14.3
2018-11-12T10:08:55.468Z,14.3
2018-11-12T10:09:20.190Z,14.4
2018-11-12T10:11:17.765Z,14.4
2018-11-12T10:12:21.386Z,14.4
2018-11-12T10:12:52.084Z,14.4
2018-11-12T10:13:18.039Z,14.4
2018-11-12T10:14:17.630Z,14.4
2018-11-12T10:14:50.084Z,14.4
2018-11-12T10:15:22.189Z,14.5
2018-11-12T10:16:22.111Z,14.5
2018-11-12T10:16:44.659Z,14.5
2018-11-12T10:17:15.362Z,14.5
2018-11-12T10:17:45.385Z,14.5
2018-11-12T10:23:01.548Z,14.7
2018-11-12T10:24:00.299Z,14.7
2018-11-12T10:25:59.014Z,14.7
2018-11-12T10:26:57.939Z,14.7
2018-11-12T10:28:56.660Z,14.7
2018-11-12T10:29:55.900Z,14.7
2018-11-12T10:30:26.548Z,14.7
2018-11-12T10:35:51.209Z,14.9
2018-11-12T10:36:49.829Z,14.9
2018-11-12T10:38:48.551Z,15.1
2018-11-12T10:39:48.081Z,15.1
2018-11-12T10:40:47.006Z,15.3
2018-11-12T10:41:17.320Z,15.3
2018-11-12T10:41:47.387Z,15.3
2018-11-12T10:43:44.611Z,15.5
2018-11-12T10:45:43.234Z,15.5
2018-11-12T10:58:33.276Z,15.9
2018-11-12T11:51:50.953Z,17.5
2018-11-12T12:01:43.790Z,17.7
2018-11-12T17:02:02.293Z,14.4
